sensor_id;sensor_type;location;lat;lon;timestamp;P1;durP1;ratioP1;P2;durP2;ratioP2
72156;SDS011;60035;52.122;5.406;2024-01-15T00:00:11;3.05;;;0.50;;
72156;SDS011;60035;52.122;5.406;2024-01-15T00:02:38;5.63;;;0.47;;
72156;SDS011;60035;52.122;5.406;2024-01-15T00:05:05;5.65;;;0.77;;
72156;SDS011;60035;52.122;5.406;2024-01-15T00:07:32;5.40;;;0.88;;
72156;SDS011;60035;52.122;5.406;2024-01-15T00:09:59;7.53;;;0.77;;
72156;SDS011;60035;52.122;5.406;2024-01-15T00:12:25;8.90;;;1.05;;
72156;SDS011;60035;52.122;5.406;2024-01-15T00:14:52;4.93;;;0.65;;
72156;SDS011;60035;52.122;5.406;2024-01-15T00:17:19;3.80;;;0.40;;
72156;SDS011;60035;52.122;5.406;2024-01-15T00:19:46;4.45;;;0.85;;
72156;SDS011;60035;52.122;5.406;2024-01-15T00:22:13;5.88;;;0.90;;
72156;SDS011;60035;52.122;5.406;2024-01-15T00:24:40;6.65;;;1.13;;
72156;SDS011;60035;52.122;5.406;2024-01-15T00:27:06;3.30;;;0.70;;
72156;SDS011;60035;52.122;5.406;2024-01-15T00:29:33;6.80;;;0.80;;
72156;SDS011;60035;52.122;5.406;2024-01-15T00:32:00;6.00;;;1.08;;
72156;SDS011;60035;52.122;5.406;2024-01-15T00:34:27;5.53;;;0.52;;
72156;SDS011;60035;52.122;5.406;2024-01-15T00:36:53;2.08;;;0.40;;
72156;SDS011;60035;52.122;5.406;2024-01-15T00:39:20;7.30;;;0.80;;
72156;SDS011;60035;52.122;5.406;2024-01-15T00:41:47;4.95;;;0.60;;
72156;SDS011;60035;52.122;5.406;2024-01-15T00:44:13;9.20;;;0.82;;
72156;SDS011;60035;52.122;5.406;2024-01-15T00:46:44;5.72;;;0.65;;
72156;SDS011;60035;52.122;5.406;2024-01-15T00:49:15;4.47;;;0.75;;
72156;SDS011;60035;52.122;5.406;2024-01-15T00:51:42;4.13;;;0.80;;
72156;SDS011;60035;52.122;5.406;2024-01-15T00:54:09;3.30;;;0.60;;
72156;SDS011;60035;52.122;5.406;2024-01-15T00:56:36;5.88;;;0.80;;
72156;SDS011;60035;52.122;5.406;2024-01-15T00:59:03;4.05;;;0.77;;
72156;SDS011;60035;52.122;5.406;2024-01-15T01:01:29;6.45;;;0.65;;
72156;SDS011;60035;52.122;5.406;2024-01-15T01:03:56;3.65;;;0.57;;
72156;SDS011;60035;52.122;5.406;2024-01-15T01:06:23;5.30;;;0.70;;
72156;SDS011;60035;52.122;5.406;2024-01-15T01:08:50;9.88;;;0.77;;
72156;SDS011;60035;52.122;5.406;2024-01-15T01:11:16;9.52;;;1.20;;
72156;SDS011;60035;52.122;5.406;2024-01-15T01:13:43;6.03;;;0.80;;
72156;SDS011;60035;52.122;5.406;2024-01-15T01:16:09;4.13;;;0.82;;
72156;SDS011;60035;52.122;5.406;2024-01-15T01:18:36;3.67;;;0.50;;
72156;SDS011;60035;52.122;5.406;2024-01-15T01:21:03;4.65;;;0.73;;
72156;SDS011;60035;52.122;5.406;2024-01-15T01:23:30;10.07;;;0.95;;
72156;SDS011;60035;52.122;5.406;2024-01-15T01:25:56;6.43;;;0.63;;
72156;SDS011;60035;52.122;5.406;2024-01-15T01:28:23;9.15;;;0.82;;
72156;SDS011;60035;52.122;5.406;2024-01-15T01:30:50;4.90;;;0.85;;
72156;SDS011;60035;52.122;5.406;2024-01-15T01:33:17;2.95;;;0.50;;
72156;SDS011;60035;52.122;5.406;2024-01-15T01:35:44;5.18;;;0.63;;
72156;SDS011;60035;52.122;5.406;2024-01-15T01:38:11;6.53;;;1.02;;
72156;SDS011;60035;52.122;5.406;2024-01-15T01:40:38;8.13;;;0.90;;
72156;SDS011;60035;52.122;5.406;2024-01-15T01:43:05;1.77;;;0.55;;
72156;SDS011;60035;52.122;5.406;2024-01-15T01:45:31;5.82;;;0.93;;
72156;SDS011;60035;52.122;5.406;2024-01-15T01:47:59;3.75;;;0.82;;
72156;SDS011;60035;52.122;5.406;2024-01-15T01:50:27;10.00;;;1.13;;
72156;SDS011;60035;52.122;5.406;2024-01-15T01:52:56;1.77;;;0.52;;
72156;SDS011;60035;52.122;5.406;2024-01-15T01:55:23;5.78;;;0.70;;
72156;SDS011;60035;52.122;5.406;2024-01-15T01:57:52;2.88;;;0.40;;
72156;SDS011;60035;52.122;5.406;2024-01-15T02:00:21;6.32;;;0.77;;
72156;SDS011;60035;52.122;5.406;2024-01-15T02:02:47;6.95;;;1.00;;
72156;SDS011;60035;52.122;5.406;2024-01-15T02:05:14;6.90;;;0.75;;
72156;SDS011;60035;52.122;5.406;2024-01-15T02:07:45;10.73;;;0.82;;
72156;SDS011;60035;52.122;5.406;2024-01-15T02:10:12;6.25;;;0.65;;
72156;SDS011;60035;52.122;5.406;2024-01-15T02:12:39;4.10;;;0.82;;
72156;SDS011;60035;52.122;5.406;2024-01-15T02:15:06;8.93;;;0.95;;
72156;SDS011;60035;52.122;5.406;2024-01-15T02:17:33;4.22;;;0.73;;
72156;SDS011;60035;52.122;5.406;2024-01-15T02:20:01;4.65;;;0.52;;
72156;SDS011;60035;52.122;5.406;2024-01-15T02:22:27;7.65;;;0.50;;
72156;SDS011;60035;52.122;5.406;2024-01-15T02:24:54;6.90;;;0.80;;
72156;SDS011;60035;52.122;5.406;2024-01-15T02:27:20;4.35;;;0.50;;
72156;SDS011;60035;52.122;5.406;2024-01-15T02:29:48;4.38;;;0.50;;
72156;SDS011;60035;52.122;5.406;2024-01-15T02:32:15;8.25;;;0.73;;
72156;SDS011;60035;52.122;5.406;2024-01-15T02:34:41;5.93;;;0.70;;
72156;SDS011;60035;52.122;5.406;2024-01-15T02:37:08;2.42;;;0.35;;
72156;SDS011;60035;52.122;5.406;2024-01-15T02:39:35;3.47;;;0.55;;
72156;SDS011;60035;52.122;5.406;2024-01-15T02:42:01;5.32;;;0.80;;
72156;SDS011;60035;52.122;5.406;2024-01-15T02:44:28;3.55;;;0.32;;
72156;SDS011;60035;52.122;5.406;2024-01-15T02:46:54;0.65;;;0.30;;
72156;SDS011;60035;52.122;5.406;2024-01-15T02:49:21;3.42;;;0.17;;
72156;SDS011;60035;52.122;5.406;2024-01-15T02:51:48;3.03;;;0.30;;
72156;SDS011;60035;52.122;5.406;2024-01-15T02:54:15;1.38;;;0.40;;
72156;SDS011;60035;52.122;5.406;2024-01-15T02:56:41;2.30;;;0.35;;
72156;SDS011;60035;52.122;5.406;2024-01-15T02:59:08;4.32;;;0.35;;
72156;SDS011;60035;52.122;5.406;2024-01-15T03:01:34;5.05;;;0.47;;
72156;SDS011;60035;52.122;5.406;2024-01-15T03:04:01;2.58;;;0.57;;
72156;SDS011;60035;52.122;5.406;2024-01-15T03:06:28;2.63;;;0.40;;
72156;SDS011;60035;52.122;5.406;2024-01-15T03:08:54;6.75;;;0.60;;
72156;SDS011;60035;52.122;5.406;2024-01-15T03:11:21;3.90;;;0.60;;
72156;SDS011;60035;52.122;5.406;2024-01-15T03:13:47;6.20;;;0.50;;
72156;SDS011;60035;52.122;5.406;2024-01-15T03:16:14;5.20;;;0.63;;
72156;SDS011;60035;52.122;5.406;2024-01-15T03:18:40;2.58;;;0.32;;
72156;SDS011;60035;52.122;5.406;2024-01-15T03:21:07;3.08;;;0.40;;
72156;SDS011;60035;52.122;5.406;2024-01-15T03:23:34;7.00;;;0.50;;
72156;SDS011;60035;52.122;5.406;2024-01-15T03:26:00;2.20;;;0.25;;
72156;SDS011;60035;52.122;5.406;2024-01-15T03:28:26;2.28;;;0.30;;
72156;SDS011;60035;52.122;5.406;2024-01-15T03:30:53;1.65;;;0.30;;
72156;SDS011;60035;52.122;5.406;2024-01-15T03:33:20;6.00;;;1.15;;
72156;SDS011;60035;52.122;5.406;2024-01-15T03:35:47;2.38;;;0.40;;
72156;SDS011;60035;52.122;5.406;2024-01-15T03:38:14;4.95;;;0.40;;
72156;SDS011;60035;52.122;5.406;2024-01-15T03:40:40;4.40;;;0.90;;
72156;SDS011;60035;52.122;5.406;2024-01-15T03:43:07;1.58;;;0.30;;
72156;SDS011;60035;52.122;5.406;2024-01-15T03:45:34;3.67;;;0.40;;
72156;SDS011;60035;52.122;5.406;2024-01-15T03:48:00;4.07;;;0.32;;
72156;SDS011;60035;52.122;5.406;2024-01-15T03:50:27;6.03;;;0.70;;
72156;SDS011;60035;52.122;5.406;2024-01-15T03:52:54;1.35;;;0.35;;
72156;SDS011;60035;52.122;5.406;2024-01-15T03:55:20;4.93;;;0.40;;
72156;SDS011;60035;52.122;5.406;2024-01-15T03:57:47;2.35;;;0.20;;
72156;SDS011;60035;52.122;5.406;2024-01-15T04:00:14;3.67;;;0.30;;
72156;SDS011;60035;52.122;5.406;2024-01-15T04:02:43;10.07;;;0.65;;
72156;SDS011;60035;52.122;5.406;2024-01-15T04:05:10;3.95;;;0.73;;
72156;SDS011;60035;52.122;5.406;2024-01-15T04:07:37;7.93;;;0.43;;
72156;SDS011;60035;52.122;5.406;2024-01-15T04:10:03;2.38;;;0.35;;
72156;SDS011;60035;52.122;5.406;2024-01-15T04:12:30;5.35;;;0.30;;
72156;SDS011;60035;52.122;5.406;2024-01-15T04:14:56;4.85;;;0.60;;
72156;SDS011;60035;52.122;5.406;2024-01-15T04:17:23;4.28;;;0.73;;
72156;SDS011;60035;52.122;5.406;2024-01-15T04:19:50;3.53;;;0.40;;
72156;SDS011;60035;52.122;5.406;2024-01-15T04:22:17;5.22;;;0.95;;
72156;SDS011;60035;52.122;5.406;2024-01-15T04:24:43;3.45;;;0.40;;
72156;SDS011;60035;52.122;5.406;2024-01-15T04:27:10;1.73;;;0.47;;
72156;SDS011;60035;52.122;5.406;2024-01-15T04:29:40;7.53;;;0.43;;
72156;SDS011;60035;52.122;5.406;2024-01-15T04:32:07;5.82;;;0.60;;
72156;SDS011;60035;52.122;5.406;2024-01-15T04:34:34;6.22;;;0.38;;
72156;SDS011;60035;52.122;5.406;2024-01-15T04:37:00;3.92;;;0.30;;
72156;SDS011;60035;52.122;5.406;2024-01-15T04:39:27;0.73;;;0.25;;
72156;SDS011;60035;52.122;5.406;2024-01-15T04:41:55;3.45;;;0.60;;
72156;SDS011;60035;52.122;5.406;2024-01-15T04:44:22;5.50;;;0.80;;
72156;SDS011;60035;52.122;5.406;2024-01-15T04:46:48;5.70;;;0.40;;
72156;SDS011;60035;52.122;5.406;2024-01-15T04:49:15;9.63;;;0.40;;
72156;SDS011;60035;52.122;5.406;2024-01-15T04:51:42;5.55;;;0.60;;
72156;SDS011;60035;52.122;5.406;2024-01-15T04:54:08;2.90;;;0.60;;
72156;SDS011;60035;52.122;5.406;2024-01-15T04:56:35;4.43;;;0.43;;
72156;SDS011;60035;52.122;5.406;2024-01-15T04:59:02;5.88;;;0.70;;
72156;SDS011;60035;52.122;5.406;2024-01-15T05:01:31;3.28;;;0.52;;
72156;SDS011;60035;52.122;5.406;2024-01-15T05:03:59;6.15;;;0.50;;
72156;SDS011;60035;52.122;5.406;2024-01-15T05:06:28;5.38;;;0.35;;
72156;SDS011;60035;52.122;5.406;2024-01-15T05:08:55;6.10;;;0.93;;
72156;SDS011;60035;52.122;5.406;2024-01-15T05:11:21;4.28;;;0.45;;
72156;SDS011;60035;52.122;5.406;2024-01-15T05:13:48;3.10;;;0.30;;
72156;SDS011;60035;52.122;5.406;2024-01-15T05:16:14;4.40;;;0.85;;
72156;SDS011;60035;52.122;5.406;2024-01-15T05:18:41;5.63;;;0.60;;
72156;SDS011;60035;52.122;5.406;2024-01-15T05:21:08;4.45;;;0.80;;
72156;SDS011;60035;52.122;5.406;2024-01-15T05:23:34;3.63;;;0.52;;
72156;SDS011;60035;52.122;5.406;2024-01-15T05:26:01;1.10;;;0.25;;
72156;SDS011;60035;52.122;5.406;2024-01-15T05:28:27;3.95;;;0.70;;
72156;SDS011;60035;52.122;5.406;2024-01-15T05:30:54;5.93;;;0.75;;
72156;SDS011;60035;52.122;5.406;2024-01-15T05:33:22;3.00;;;0.30;;
72156;SDS011;60035;52.122;5.406;2024-01-15T05:35:49;2.33;;;0.28;;
72156;SDS011;60035;52.122;5.406;2024-01-15T05:38:16;2.97;;;0.40;;
72156;SDS011;60035;52.122;5.406;2024-01-15T05:40:43;5.53;;;0.50;;
72156;SDS011;60035;52.122;5.406;2024-01-15T05:43:10;3.47;;;0.50;;
72156;SDS011;60035;52.122;5.406;2024-01-15T05:45:37;3.72;;;0.70;;
72156;SDS011;60035;52.122;5.406;2024-01-15T05:48:05;1.52;;;0.38;;
72156;SDS011;60035;52.122;5.406;2024-01-15T05:50:32;3.70;;;0.57;;
72156;SDS011;60035;52.122;5.406;2024-01-15T05:52:58;4.30;;;0.47;;
72156;SDS011;60035;52.122;5.406;2024-01-15T05:55:25;4.72;;;0.38;;
72156;SDS011;60035;52.122;5.406;2024-01-15T05:57:51;6.72;;;0.75;;
72156;SDS011;60035;52.122;5.406;2024-01-15T06:00:18;1.92;;;0.40;;
72156;SDS011;60035;52.122;5.406;2024-01-15T06:02:45;4.93;;;0.50;;
72156;SDS011;60035;52.122;5.406;2024-01-15T06:05:12;4.25;;;0.50;;
72156;SDS011;60035;52.122;5.406;2024-01-15T06:07:38;4.32;;;0.40;;
72156;SDS011;60035;52.122;5.406;2024-01-15T06:10:05;2.53;;;0.95;;
72156;SDS011;60035;52.122;5.406;2024-01-15T06:12:32;3.60;;;0.55;;
72156;SDS011;60035;52.122;5.406;2024-01-15T06:15:00;2.10;;;0.52;;
72156;SDS011;60035;52.122;5.406;2024-01-15T06:17:26;4.65;;;0.32;;
72156;SDS011;60035;52.122;5.406;2024-01-15T06:19:53;6.93;;;0.50;;
72156;SDS011;60035;52.122;5.406;2024-01-15T06:22:20;7.97;;;0.57;;
72156;SDS011;60035;52.122;5.406;2024-01-15T06:24:46;2.72;;;0.57;;
72156;SDS011;60035;52.122;5.406;2024-01-15T06:27:13;6.70;;;0.77;;
72156;SDS011;60035;52.122;5.406;2024-01-15T06:29:44;3.53;;;0.55;;
72156;SDS011;60035;52.122;5.406;2024-01-15T06:32:15;2.97;;;0.47;;
72156;SDS011;60035;52.122;5.406;2024-01-15T06:34:42;5.32;;;0.55;;
72156;SDS011;60035;52.122;5.406;2024-01-15T06:37:08;4.50;;;0.50;;
72156;SDS011;60035;52.122;5.406;2024-01-15T06:39:35;5.70;;;0.63;;
72156;SDS011;60035;52.122;5.406;2024-01-15T06:42:02;3.03;;;0.50;;
72156;SDS011;60035;52.122;5.406;2024-01-15T06:44:28;5.43;;;1.33;;
72156;SDS011;60035;52.122;5.406;2024-01-15T06:46:55;5.13;;;1.17;;
72156;SDS011;60035;52.122;5.406;2024-01-15T06:49:23;3.97;;;1.20;;
72156;SDS011;60035;52.122;5.406;2024-01-15T06:51:50;6.82;;;1.30;;
72156;SDS011;60035;52.122;5.406;2024-01-15T06:54:17;3.50;;;1.15;;
72156;SDS011;60035;52.122;5.406;2024-01-15T06:56:43;4.28;;;1.20;;
72156;SDS011;60035;52.122;5.406;2024-01-15T06:59:10;6.60;;;1.45;;
72156;SDS011;60035;52.122;5.406;2024-01-15T07:01:36;3.47;;;0.70;;
72156;SDS011;60035;52.122;5.406;2024-01-15T07:04:03;5.30;;;1.00;;
72156;SDS011;60035;52.122;5.406;2024-01-15T07:06:30;3.22;;;0.65;;
72156;SDS011;60035;52.122;5.406;2024-01-15T07:08:57;2.75;;;0.70;;
72156;SDS011;60035;52.122;5.406;2024-01-15T07:11:23;4.50;;;0.90;;
72156;SDS011;60035;52.122;5.406;2024-01-15T07:13:50;2.13;;;0.75;;
72156;SDS011;60035;52.122;5.406;2024-01-15T07:16:16;3.78;;;0.80;;
72156;SDS011;60035;52.122;5.406;2024-01-15T07:19:02;3.13;;;0.70;;
72156;SDS011;60035;52.122;5.406;2024-01-15T07:21:28;3.47;;;0.90;;
72156;SDS011;60035;52.122;5.406;2024-01-15T07:23:56;3.00;;;0.63;;
72156;SDS011;60035;52.122;5.406;2024-01-15T07:26:23;5.80;;;1.38;;
72156;SDS011;60035;52.122;5.406;2024-01-15T07:28:49;4.45;;;1.15;;
72156;SDS011;60035;52.122;5.406;2024-01-15T07:31:17;6.43;;;0.93;;
72156;SDS011;60035;52.122;5.406;2024-01-15T07:33:44;4.13;;;0.80;;
72156;SDS011;60035;52.122;5.406;2024-01-15T07:36:10;3.80;;;1.17;;
72156;SDS011;60035;52.122;5.406;2024-01-15T07:38:37;4.65;;;1.08;;
72156;SDS011;60035;52.122;5.406;2024-01-15T07:41:04;4.72;;;0.90;;
72156;SDS011;60035;52.122;5.406;2024-01-15T07:43:31;4.90;;;1.20;;
72156;SDS011;60035;52.122;5.406;2024-01-15T07:45:57;7.00;;;1.25;;
72156;SDS011;60035;52.122;5.406;2024-01-15T07:48:25;8.20;;;1.95;;
72156;SDS011;60035;52.122;5.406;2024-01-15T07:50:53;3.83;;;1.20;;
72156;SDS011;60035;52.122;5.406;2024-01-15T07:53:19;3.63;;;1.35;;
72156;SDS011;60035;52.122;5.406;2024-01-15T07:55:46;5.75;;;1.48;;
72156;SDS011;60035;52.122;5.406;2024-01-15T07:58:15;6.03;;;1.73;;
72156;SDS011;60035;52.122;5.406;2024-01-15T08:00:42;3.78;;;1.02;;
72156;SDS011;60035;52.122;5.406;2024-01-15T08:03:10;7.05;;;1.40;;
72156;SDS011;60035;52.122;5.406;2024-01-15T08:05:38;5.93;;;1.85;;
72156;SDS011;60035;52.122;5.406;2024-01-15T08:08:05;4.95;;;1.25;;
72156;SDS011;60035;52.122;5.406;2024-01-15T08:10:31;6.70;;;1.50;;
72156;SDS011;60035;52.122;5.406;2024-01-15T08:12:58;5.75;;;1.65;;
72156;SDS011;60035;52.122;5.406;2024-01-15T08:15:25;5.60;;;1.83;;
72156;SDS011;60035;52.122;5.406;2024-01-15T08:17:56;5.15;;;1.38;;
72156;SDS011;60035;52.122;5.406;2024-01-15T08:20:23;6.25;;;2.00;;
72156;SDS011;60035;52.122;5.406;2024-01-15T08:22:50;7.20;;;1.55;;
72156;SDS011;60035;52.122;5.406;2024-01-15T08:25:16;7.13;;;1.80;;
72156;SDS011;60035;52.122;5.406;2024-01-15T08:27:42;5.82;;;1.55;;
72156;SDS011;60035;52.122;5.406;2024-01-15T08:30:09;6.53;;;1.40;;
72156;SDS011;60035;52.122;5.406;2024-01-15T08:32:36;4.93;;;1.45;;
72156;SDS011;60035;52.122;5.406;2024-01-15T08:35:07;5.38;;;1.60;;
72156;SDS011;60035;52.122;5.406;2024-01-15T08:37:38;7.93;;;1.50;;
72156;SDS011;60035;52.122;5.406;2024-01-15T08:40:05;7.53;;;1.10;;
72156;SDS011;60035;52.122;5.406;2024-01-15T08:42:32;5.00;;;1.00;;
72156;SDS011;60035;52.122;5.406;2024-01-15T08:44:58;3.55;;;0.90;;
72156;SDS011;60035;52.122;5.406;2024-01-15T08:47:25;6.65;;;1.23;;
72156;SDS011;60035;52.122;5.406;2024-01-15T08:49:53;6.10;;;1.00;;
72156;SDS011;60035;52.122;5.406;2024-01-15T08:52:20;3.40;;;0.90;;
72156;SDS011;60035;52.122;5.406;2024-01-15T08:54:47;7.35;;;1.30;;
72156;SDS011;60035;52.122;5.406;2024-01-15T08:57:13;6.35;;;1.23;;
72156;SDS011;60035;52.122;5.406;2024-01-15T08:59:40;4.28;;;0.88;;
72156;SDS011;60035;52.122;5.406;2024-01-15T09:02:07;6.95;;;1.38;;
72156;SDS011;60035;52.122;5.406;2024-01-15T09:04:34;3.08;;;0.90;;
72156;SDS011;60035;52.122;5.406;2024-01-15T09:07:00;4.90;;;1.10;;
72156;SDS011;60035;52.122;5.406;2024-01-15T09:09:28;3.28;;;1.00;;
72156;SDS011;60035;52.122;5.406;2024-01-15T09:11:54;4.63;;;0.93;;
72156;SDS011;60035;52.122;5.406;2024-01-15T09:14:21;5.20;;;0.77;;
72156;SDS011;60035;52.122;5.406;2024-01-15T09:17:03;3.92;;;0.98;;
72156;SDS011;60035;52.122;5.406;2024-01-15T09:19:30;2.50;;;0.38;;
72156;SDS011;60035;52.122;5.406;2024-01-15T09:21:57;6.40;;;0.93;;
72156;SDS011;60035;52.122;5.406;2024-01-15T09:24:24;2.25;;;0.68;;
72156;SDS011;60035;52.122;5.406;2024-01-15T09:26:54;5.57;;;0.75;;
72156;SDS011;60035;52.122;5.406;2024-01-15T09:29:21;7.25;;;0.60;;
72156;SDS011;60035;52.122;5.406;2024-01-15T09:31:50;5.38;;;0.90;;
72156;SDS011;60035;52.122;5.406;2024-01-15T09:34:17;3.05;;;0.70;;
72156;SDS011;60035;52.122;5.406;2024-01-15T09:36:44;6.20;;;1.00;;
72156;SDS011;60035;52.122;5.406;2024-01-15T09:39:11;3.25;;;0.90;;
72156;SDS011;60035;52.122;5.406;2024-01-15T09:41:38;3.22;;;0.80;;
72156;SDS011;60035;52.122;5.406;2024-01-15T09:44:04;6.97;;;0.77;;
72156;SDS011;60035;52.122;5.406;2024-01-15T09:46:34;8.13;;;1.00;;
72156;SDS011;60035;52.122;5.406;2024-01-15T09:49:01;3.50;;;0.77;;
72156;SDS011;60035;52.122;5.406;2024-01-15T09:51:31;5.13;;;1.00;;
72156;SDS011;60035;52.122;5.406;2024-01-15T09:53:58;3.53;;;0.60;;
72156;SDS011;60035;52.122;5.406;2024-01-15T09:56:25;5.03;;;0.57;;
72156;SDS011;60035;52.122;5.406;2024-01-15T09:58:51;5.40;;;0.65;;
72156;SDS011;60035;52.122;5.406;2024-01-15T10:01:22;4.95;;;0.52;;
72156;SDS011;60035;52.122;5.406;2024-01-15T10:03:50;3.63;;;0.60;;
72156;SDS011;60035;52.122;5.406;2024-01-15T10:06:17;9.45;;;0.80;;
72156;SDS011;60035;52.122;5.406;2024-01-15T10:08:49;6.43;;;1.00;;
72156;SDS011;60035;52.122;5.406;2024-01-15T10:11:16;8.13;;;0.65;;
72156;SDS011;60035;52.122;5.406;2024-01-15T10:13:43;6.15;;;0.93;;
72156;SDS011;60035;52.122;5.406;2024-01-15T10:16:12;4.18;;;1.02;;
72156;SDS011;60035;52.122;5.406;2024-01-15T10:18:39;9.75;;;0.98;;
72156;SDS011;60035;52.122;5.406;2024-01-15T10:21:07;9.32;;;1.10;;
72156;SDS011;60035;52.122;5.406;2024-01-15T10:23:34;6.60;;;1.35;;
72156;SDS011;60035;52.122;5.406;2024-01-15T10:26:02;3.75;;;0.85;;
72156;SDS011;60035;52.122;5.406;2024-01-15T10:28:30;11.00;;;0.82;;
72156;SDS011;60035;52.122;5.406;2024-01-15T10:30:58;4.00;;;0.80;;
72156;SDS011;60035;52.122;5.406;2024-01-15T10:33:26;6.32;;;1.05;;
72156;SDS011;60035;52.122;5.406;2024-01-15T10:35:54;7.40;;;1.05;;
72156;SDS011;60035;52.122;5.406;2024-01-15T10:38:21;7.22;;;1.08;;
72156;SDS011;60035;52.122;5.406;2024-01-15T10:40:54;8.38;;;1.10;;
72156;SDS011;60035;52.122;5.406;2024-01-15T10:43:22;4.00;;;0.63;;
72156;SDS011;60035;52.122;5.406;2024-01-15T10:45:54;6.82;;;0.70;;
72156;SDS011;60035;52.122;5.406;2024-01-15T10:48:21;4.60;;;1.00;;
72156;SDS011;60035;52.122;5.406;2024-01-15T10:50:56;5.03;;;0.60;;
72156;SDS011;60035;52.122;5.406;2024-01-15T10:53:23;4.30;;;0.70;;
72156;SDS011;60035;52.122;5.406;2024-01-15T10:55:54;6.95;;;1.10;;
72156;SDS011;60035;52.122;5.406;2024-01-15T10:58:20;2.72;;;0.63;;
72156;SDS011;60035;52.122;5.406;2024-01-15T11:00:59;8.27;;;0.95;;
72156;SDS011;60035;52.122;5.406;2024-01-15T11:03:28;8.23;;;0.77;;
72156;SDS011;60035;52.122;5.406;2024-01-15T11:05:55;8.50;;;0.95;;
72156;SDS011;60035;52.122;5.406;2024-01-15T11:08:21;6.63;;;0.95;;
72156;SDS011;60035;52.122;5.406;2024-01-15T11:11:08;3.08;;;0.75;;
72156;SDS011;60035;52.122;5.406;2024-01-15T11:16:05;6.72;;;0.88;;
72156;SDS011;60035;52.122;5.406;2024-01-15T11:18:37;8.48;;;0.70;;
72156;SDS011;60035;52.122;5.406;2024-01-15T11:23:47;4.47;;;0.90;;
72156;SDS011;60035;52.122;5.406;2024-01-15T11:27:05;4.97;;;0.45;;
72156;SDS011;60035;52.122;5.406;2024-01-15T11:34:50;8.63;;;0.50;;
72156;SDS011;60035;52.122;5.406;2024-01-15T11:37:19;2.70;;;0.60;;
72156;SDS011;60035;52.122;5.406;2024-01-15T11:39:54;1.83;;;0.60;;
72156;SDS011;60035;52.122;5.406;2024-01-15T11:42:30;2.03;;;0.32;;
72156;SDS011;60035;52.122;5.406;2024-01-15T11:44:57;2.63;;;0.52;;
72156;SDS011;60035;52.122;5.406;2024-01-15T11:50:46;3.08;;;0.57;;
72156;SDS011;60035;52.122;5.406;2024-01-15T11:56:05;5.88;;;0.85;;
72156;SDS011;60035;52.122;5.406;2024-01-15T11:58:40;6.47;;;0.65;;
72156;SDS011;60035;52.122;5.406;2024-01-15T12:01:14;3.28;;;0.40;;
72156;SDS011;60035;52.122;5.406;2024-01-15T12:03:40;1.73;;;0.32;;
72156;SDS011;60035;52.122;5.406;2024-01-15T12:06:07;3.60;;;0.50;;
72156;SDS011;60035;52.122;5.406;2024-01-15T12:08:35;2.78;;;0.45;;
72156;SDS011;60035;52.122;5.406;2024-01-15T12:11:06;4.28;;;0.20;;
72156;SDS011;60035;52.122;5.406;2024-01-15T12:13:33;2.78;;;0.35;;
72156;SDS011;60035;52.122;5.406;2024-01-15T12:16:01;0.63;;;0.20;;
72156;SDS011;60035;52.122;5.406;2024-01-15T12:18:29;1.38;;;0.30;;
72156;SDS011;60035;52.122;5.406;2024-01-15T12:20:56;1.77;;;0.43;;
72156;SDS011;60035;52.122;5.406;2024-01-15T12:23:23;7.85;;;0.70;;
72156;SDS011;60035;52.122;5.406;2024-01-15T12:25:50;2.40;;;0.70;;
72156;SDS011;60035;52.122;5.406;2024-01-15T12:28:17;4.93;;;0.43;;
72156;SDS011;60035;52.122;5.406;2024-01-15T12:30:45;6.05;;;0.70;;
72156;SDS011;60035;52.122;5.406;2024-01-15T12:33:17;2.38;;;0.38;;
72156;SDS011;60035;52.122;5.406;2024-01-15T12:35:44;4.50;;;0.55;;
72156;SDS011;60035;52.122;5.406;2024-01-15T12:38:11;3.03;;;0.32;;
72156;SDS011;60035;52.122;5.406;2024-01-15T12:40:38;1.35;;;0.40;;
72156;SDS011;60035;52.122;5.406;2024-01-15T12:43:10;2.67;;;0.50;;
72156;SDS011;60035;52.122;5.406;2024-01-15T12:45:36;4.68;;;0.73;;
72156;SDS011;60035;52.122;5.406;2024-01-15T12:48:04;4.00;;;0.43;;
72156;SDS011;60035;52.122;5.406;2024-01-15T12:50:45;3.40;;;0.50;;
72156;SDS011;60035;52.122;5.406;2024-01-15T12:53:12;2.90;;;0.32;;
72156;SDS011;60035;52.122;5.406;2024-01-15T12:55:38;4.13;;;0.47;;
72156;SDS011;60035;52.122;5.406;2024-01-15T12:58:05;4.53;;;0.75;;
72156;SDS011;60035;52.122;5.406;2024-01-15T13:00:46;4.72;;;0.75;;
72156;SDS011;60035;52.122;5.406;2024-01-15T13:03:14;5.13;;;0.60;;
72156;SDS011;60035;52.122;5.406;2024-01-15T13:05:40;2.50;;;0.52;;
72156;SDS011;60035;52.122;5.406;2024-01-15T13:08:07;4.40;;;0.70;;
72156;SDS011;60035;52.122;5.406;2024-01-15T13:14:33;2.90;;;0.40;;
72156;SDS011;60035;52.122;5.406;2024-01-15T13:17:00;2.38;;;0.45;;
72156;SDS011;60035;52.122;5.406;2024-01-15T13:19:34;2.53;;;0.50;;
72156;SDS011;60035;52.122;5.406;2024-01-15T13:22:01;4.30;;;0.50;;
72156;SDS011;60035;52.122;5.406;2024-01-15T13:24:27;2.42;;;0.32;;
72156;SDS011;60035;52.122;5.406;2024-01-15T13:26:54;7.45;;;0.60;;
72156;SDS011;60035;52.122;5.406;2024-01-15T13:29:21;3.60;;;0.50;;
72156;SDS011;60035;52.122;5.406;2024-01-15T13:31:47;6.30;;;0.63;;
72156;SDS011;60035;52.122;5.406;2024-01-15T13:34:14;6.90;;;0.45;;
72156;SDS011;60035;52.122;5.406;2024-01-15T13:36:42;2.67;;;0.60;;
72156;SDS011;60035;52.122;5.406;2024-01-15T13:39:14;7.93;;;0.70;;
72156;SDS011;60035;52.122;5.406;2024-01-15T13:41:44;2.17;;;0.30;;
72156;SDS011;60035;52.122;5.406;2024-01-15T13:44:10;3.50;;;0.55;;
72156;SDS011;60035;52.122;5.406;2024-01-15T13:46:37;6.20;;;0.70;;
72156;SDS011;60035;52.122;5.406;2024-01-15T13:49:04;5.72;;;0.73;;
72156;SDS011;60035;52.122;5.406;2024-01-15T13:51:35;6.70;;;0.63;;
72156;SDS011;60035;52.122;5.406;2024-01-15T13:54:03;9.02;;;0.98;;
72156;SDS011;60035;52.122;5.406;2024-01-15T13:56:33;6.90;;;0.93;;
72156;SDS011;60035;52.122;5.406;2024-01-15T13:59:01;6.07;;;0.60;;
72156;SDS011;60035;52.122;5.406;2024-01-15T14:01:30;6.22;;;0.63;;
72156;SDS011;60035;52.122;5.406;2024-01-15T14:03:57;4.93;;;0.68;;
72156;SDS011;60035;52.122;5.406;2024-01-15T14:06:24;8.23;;;0.95;;
72156;SDS011;60035;52.122;5.406;2024-01-15T14:08:51;5.43;;;1.05;;
72156;SDS011;60035;52.122;5.406;2024-01-15T14:11:18;18.95;;;1.55;;
72156;SDS011;60035;52.122;5.406;2024-01-15T14:13:45;7.53;;;1.02;;
72156;SDS011;60035;52.122;5.406;2024-01-15T14:16:13;5.38;;;0.85;;
72156;SDS011;60035;52.122;5.406;2024-01-15T14:18:40;5.10;;;0.88;;
72156;SDS011;60035;52.122;5.406;2024-01-15T14:21:12;2.72;;;0.70;;
72156;SDS011;60035;52.122;5.406;2024-01-15T14:23:39;5.88;;;1.10;;
72156;SDS011;60035;52.122;5.406;2024-01-15T14:26:06;5.68;;;1.27;;
72156;SDS011;60035;52.122;5.406;2024-01-15T14:28:32;12.25;;;1.25;;
72156;SDS011;60035;52.122;5.406;2024-01-15T14:31:00;7.78;;;0.82;;
72156;SDS011;60035;52.122;5.406;2024-01-15T14:33:27;4.95;;;0.77;;
72156;SDS011;60035;52.122;5.406;2024-01-15T14:35:54;11.23;;;1.33;;
72156;SDS011;60035;52.122;5.406;2024-01-15T14:38:20;15.50;;;2.67;;
72156;SDS011;60035;52.122;5.406;2024-01-15T14:40:53;4.45;;;1.23;;
72156;SDS011;60035;52.122;5.406;2024-01-15T14:43:20;11.57;;;2.00;;
72156;SDS011;60035;52.122;5.406;2024-01-15T14:45:47;18.17;;;4.20;;
72156;SDS011;60035;52.122;5.406;2024-01-15T14:48:14;5.10;;;1.20;;
72156;SDS011;60035;52.122;5.406;2024-01-15T14:53:32;9.15;;;1.65;;
72156;SDS011;60035;52.122;5.406;2024-01-15T14:55:59;5.97;;;1.58;;
72156;SDS011;60035;52.122;5.406;2024-01-15T14:58:25;8.52;;;1.80;;
72156;SDS011;60035;52.122;5.406;2024-01-15T15:01:06;9.57;;;1.20;;
72156;SDS011;60035;52.122;5.406;2024-01-15T15:03:33;8.95;;;1.40;;
72156;SDS011;60035;52.122;5.406;2024-01-15T15:06:00;8.65;;;1.65;;
72156;SDS011;60035;52.122;5.406;2024-01-15T15:08:28;5.55;;;1.52;;
72156;SDS011;60035;52.122;5.406;2024-01-15T15:14:35;7.88;;;1.25;;
72156;SDS011;60035;52.122;5.406;2024-01-15T15:17:17;10.32;;;0.85;;